sensor_id;sensor_type;location;lat;lon;timestamp;temperature;humidity
61400;DHT22;47269;48.182;-1.946;2023-07-02T06:02:32;14.20;99.90
61400;DHT22;47269;48.182;-1.946;2023-07-02T06:04:58;14.30;99.90
61400;DHT22;47269;48.182;-1.946;2023-07-02T06:07:26;14.40;99.90
61400;DHT22;47269;48.182;-1.946;2023-07-02T06:09:52;14.40;99.90
61400;DHT22;47269;48.182;-1.946;2023-07-02T06:12:20;14.40;99.90
61400;DHT22;47269;48.182;-1.946;2023-07-02T06:14:46;14.40;99.90
61400;DHT22;47269;48.182;-1.946;2023-07-02T06:17:12;14.60;99.90
61400;DHT22;47269;48.182;-1.946;2023-07-02T06:19:38;14.70;99.90
61400;DHT22;47269;48.182;-1.946;2023-07-02T06:22:04;14.80;99.90
61400;DHT22;47269;48.182;-1.946;2023-07-02T06:24:30;14.70;99.90
61400;DHT22;47269;48.182;-1.946;2023-07-02T06:26:56;14.70;99.90
61400;DHT22;47269;48.182;-1.946;2023-07-02T06:29:23;14.80;99.90
61400;DHT22;47269;48.182;-1.946;2023-07-02T06:31:52;14.90;99.90
61400;DHT22;47269;48.182;-1.946;2023-07-02T06:34:17;14.90;99.90
61400;DHT22;47269;48.182;-1.946;2023-07-02T06:36:43;15.00;99.90
61400;DHT22;47269;48.182;-1.946;2023-07-02T06:39:09;15.00;99.90
61400;DHT22;47269;48.182;-1.946;2023-07-02T06:41:35;15.20;99.90
61400;DHT22;47269;48.182;-1.946;2023-07-02T06:44:02;15.20;99.90
61400;DHT22;47269;48.182;-1.946;2023-07-02T06:46:28;15.40;99.90
61400;DHT22;47269;48.182;-1.946;2023-07-02T06:48:55;15.40;99.90
61400;DHT22;47269;48.182;-1.946;2023-07-02T06:51:20;15.50;99.90
61400;DHT22;47269;48.182;-1.946;2023-07-02T06:53:47;15.50;99.90
61400;DHT22;47269;48.182;-1.946;2023-07-02T06:56:13;15.60;99.90
61400;DHT22;47269;48.182;-1.946;2023-07-02T06:58:44;15.70;99.90
61400;DHT22;47269;48.182;-1.946;2023-07-02T07:01:10;15.90;99.90
61400;DHT22;47269;48.182;-1.946;2023-07-02T07:03:36;16.00;99.90
61400;DHT22;47269;48.182;-1.946;2023-07-02T07:06:02;16.10;99.90
61400;DHT22;47269;48.182;-1.946;2023-07-02T07:08:29;16.20;99.90
61400;DHT22;47269;48.182;-1.946;2023-07-02T07:10:54;16.30;99.90
61400;DHT22;47269;48.182;-1.946;2023-07-02T07:13:23;16.30;99.90
61400;DHT22;47269;48.182;-1.946;2023-07-02T07:15:49;16.50;99.90
61400;DHT22;47269;48.182;-1.946;2023-07-02T07:18:14;16.50;99.90
61400;DHT22;47269;48.182;-1.946;2023-07-02T07:20:41;16.60;99.90
61400;DHT22;47269;48.182;-1.946;2023-07-02T07:23:07;16.70;99.90
61400;DHT22;47269;48.182;-1.946;2023-07-02T07:25:33;16.90;99.90
61400;DHT22;47269;48.182;-1.946;2023-07-02T07:28:02;16.90;99.90
61400;DHT22;47269;48.182;-1.946;2023-07-02T07:30:27;16.90;99.90
61400;DHT22;47269;48.182;-1.946;2023-07-02T07:32:53;17.00;99.90
61400;DHT22;47269;48.182;-1.946;2023-07-02T07:35:22;17.30;99.90
61400;DHT22;47269;48.182;-1.946;2023-07-02T07:37:48;17.40;99.90
61400;DHT22;47269;48.182;-1.946;2023-07-02T07:40:14;17.60;99.90
61400;DHT22;47269;48.182;-1.946;2023-07-02T07:42:41;17.60;99.90
61400;DHT22;47269;48.182;-1.946;2023-07-02T07:45:09;17.90;99.90
61400;DHT22;47269;48.182;-1.946;2023-07-02T07:47:35;17.60;99.90
61400;DHT22;47269;48.182;-1.946;2023-07-02T07:50:00;17.50;99.90
61400;DHT22;47269;48.182;-1.946;2023-07-02T07:52:27;17.80;99.90
61400;DHT22;47269;48.182;-1.946;2023-07-02T07:54:53;17.80;99.90
61400;DHT22;47269;48.182;-1.946;2023-07-02T07:57:18;17.40;99.90
61400;DHT22;47269;48.182;-1.946;2023-07-02T07:59:44;17.30;99.90
61400;DHT22;47269;48.182;-1.946;2023-07-02T08:02:10;17.50;99.90
61400;DHT22;47269;48.182;-1.946;2023-07-02T08:04:35;18.00;99.90
61400;DHT22;47269;48.182;-1.946;2023-07-02T08:07:01;18.40;99.90
61400;DHT22;47269;48.182;-1.946;2023-07-02T08:09:29;18.40;99.90
61400;DHT22;47269;48.182;-1.946;2023-07-02T08:11:55;18.90;99.90
61400;DHT22;47269;48.182;-1.946;2023-07-02T08:14:21;19.20;99.90
61400;DHT22;47269;48.182;-1.946;2023-07-02T08:16:46;18.70;99.90
61400;DHT22;47269;48.182;-1.946;2023-07-02T08:19:12;18.80;99.90
61400;DHT22;47269;48.182;-1.946;2023-07-02T08:21:38;19.00;99.90
61400;DHT22;47269;48.182;-1.946;2023-07-02T08:24:04;19.60;99.90
61400;DHT22;47269;48.182;-1.946;2023-07-02T08:26:29;19.30;99.90
61400;DHT22;47269;48.182;-1.946;2023-07-02T08:28:56;19.60;99.90
61400;DHT22;47269;48.182;-1.946;2023-07-02T08:31:22;19.00;99.90
61400;DHT22;47269;48.182;-1.946;2023-07-02T08:33:47;19.50;99.90
61400;DHT22;47269;48.182;-1.946;2023-07-02T08:36:13;19.60;99.90
61400;DHT22;47269;48.182;-1.946;2023-07-02T08:38:42;20.20;99.90
61400;DHT22;47269;48.182;-1.946;2023-07-02T08:41:08;19.90;99.90
61400;DHT22;47269;48.182;-1.946;2023-07-02T08:43:35;19.90;99.90
61400;DHT22;47269;48.182;-1.946;2023-07-02T08:46:01;19.90;99.90
61400;DHT22;47269;48.182;-1.946;2023-07-02T08:48:28;19.80;99.90
61400;DHT22;47269;48.182;-1.946;2023-07-02T08:50:55;19.80;99.90
61400;DHT22;47269;48.182;-1.946;2023-07-02T08:53:21;19.50;99.90
61400;DHT22;47269;48.182;-1.946;2023-07-02T08:55:55;19.30;99.90
61400;DHT22;47269;48.182;-1.946;2023-07-02T08:58:21;19.20;99.90
61400;DHT22;47269;48.182;-1.946;2023-07-02T09:01:09;18.80;99.90
61400;DHT22;47269;48.182;-1.946;2023-07-02T09:03:35;18.60;99.90
61400;DHT22;47269;48.182;-1.946;2023-07-02T09:06:03;18.50;99.90
61400;DHT22;47269;48.182;-1.946;2023-07-02T09:08:29;18.30;99.90
61400;DHT22;47269;48.182;-1.946;2023-07-02T09:11:14;18.40;99.90
61400;DHT22;47269;48.182;-1.946;2023-07-02T09:13:52;19.00;99.90
61400;DHT22;47269;48.182;-1.946;2023-07-02T09:19:07;20.00;99.90
61400;DHT22;47269;48.182;-1.946;2023-07-02T09:21:44;21.00;99.90
61400;DHT22;47269;48.182;-1.946;2023-07-02T09:24:23;19.90;99.90
61400;DHT22;47269;48.182;-1.946;2023-07-02T09:26:51;19.30;99.90
61400;DHT22;47269;48.182;-1.946;2023-07-02T09:31:50;19.40;99.90
61400;DHT22;47269;48.182;-1.946;2023-07-02T09:34:16;19.40;99.90
61400;DHT22;47269;48.182;-1.946;2023-07-02T09:36:43;19.30;99.90
61400;DHT22;47269;48.182;-1.946;2023-07-02T09:39:12;19.40;99.90
61400;DHT22;47269;48.182;-1.946;2023-07-02T09:41:41;19.40;99.90
61400;DHT22;47269;48.182;-1.946;2023-07-02T09:44:08;19.80;99.90
61400;DHT22;47269;48.182;-1.946;2023-07-02T09:46:37;20.10;99.90
61400;DHT22;47269;48.182;-1.946;2023-07-02T09:49:11;20.10;99.90
61400;DHT22;47269;48.182;-1.946;2023-07-02T09:51:38;20.40;99.90
61400;DHT22;47269;48.182;-1.946;2023-07-02T09:54:04;20.60;99.90
61400;DHT22;47269;48.182;-1.946;2023-07-02T09:56:30;21.10;99.90
61400;DHT22;47269;48.182;-1.946;2023-07-02T09:58:56;21.60;99.90
61400;DHT22;47269;48.182;-1.946;2023-07-02T10:01:22;21.30;99.90
61400;DHT22;47269;48.182;-1.946;2023-07-02T10:03:48;21.00;99.90
61400;DHT22;47269;48.182;-1.946;2023-07-02T10:06:13;20.80;99.90
61400;DHT22;47269;48.182;-1.946;2023-07-02T10:08:39;21.10;99.90
61400;DHT22;47269;48.182;-1.946;2023-07-02T10:11:12;21.40;99.90
61400;DHT22;47269;48.182;-1.946;2023-07-02T10:13:41;21.10;99.90
61400;DHT22;47269;48.182;-1.946;2023-07-02T10:16:07;20.60;99.90
61400;DHT22;47269;48.182;-1.946;2023-07-02T10:18:33;20.40;99.90
61400;DHT22;47269;48.182;-1.946;2023-07-02T10:20:59;20.20;99.90
61400;DHT22;47269;48.182;-1.946;2023-07-02T10:23:35;20.70;99.90
61400;DHT22;47269;48.182;-1.946;2023-07-02T10:26:30;21.30;99.90
61400;DHT22;47269;48.182;-1.946;2023-07-02T10:28:59;21.90;99.90
61400;DHT22;47269;48.182;-1.946;2023-07-02T10:31:25;22.10;99.90
61400;DHT22;47269;48.182;-1.946;2023-07-02T10:33:51;22.10;99.90
61400;DHT22;47269;48.182;-1.946;2023-07-02T10:36:21;21.90;99.90
61400;DHT22;47269;48.182;-1.946;2023-07-02T10:38:49;21.80;99.90
61400;DHT22;47269;48.182;-1.946;2023-07-02T10:41:28;21.30;99.90
61400;DHT22;47269;48.182;-1.946;2023-07-02T10:44:04;21.10;99.90
61400;DHT22;47269;48.182;-1.946;2023-07-02T10:46:30;20.90;99.90
61400;DHT22;47269;48.182;-1.946;2023-07-02T10:48:56;20.30;99.90
61400;DHT22;47269;48.182;-1.946;2023-07-02T10:51:22;20.20;99.90
61400;DHT22;47269;48.182;-1.946;2023-07-02T10:54:02;20.60;99.90
61400;DHT22;47269;48.182;-1.946;2023-07-02T10:56:30;21.30;99.90
61400;DHT22;47269;48.182;-1.946;2023-07-02T10:58:56;22.40;99.90
61400;DHT22;47269;48.182;-1.946;2023-07-02T11:01:26;22.60;99.90
61400;DHT22;47269;48.182;-1.946;2023-07-02T11:04:02;22.80;99.90
61400;DHT22;47269;48.182;-1.946;2023-07-02T11:06:30;22.00;99.90
61400;DHT22;47269;48.182;-1.946;2023-07-02T11:08:56;21.00;99.90
61400;DHT22;47269;48.182;-1.946;2023-07-02T11:11:23;20.90;99.90
61400;DHT22;47269;48.182;-1.946;2023-07-02T11:13:50;21.20;99.90
61400;DHT22;47269;48.182;-1.946;2023-07-02T11:16:25;21.00;99.90
61400;DHT22;47269;48.182;-1.946;2023-07-02T11:19:06;20.90;99.90
61400;DHT22;47269;48.182;-1.946;2023-07-02T11:21:36;20.70;99.90
61400;DHT22;47269;48.182;-1.946;2023-07-02T11:24:03;20.90;99.90
61400;DHT22;47269;48.182;-1.946;2023-07-02T11:26:39;20.70;99.90
61400;DHT22;47269;48.182;-1.946;2023-07-02T11:29:12;20.70;99.90
61400;DHT22;47269;48.182;-1.946;2023-07-02T11:31:38;20.40;99.90
61400;DHT22;47269;48.182;-1.946;2023-07-02T11:34:20;20.60;99.90
61400;DHT22;47269;48.182;-1.946;2023-07-02T11:36:46;20.80;99.90
61400;DHT22;47269;48.182;-1.946;2023-07-02T11:39:12;20.60;99.90
61400;DHT22;47269;48.182;-1.946;2023-07-02T11:41:40;20.60;99.90
61400;DHT22;47269;48.182;-1.946;2023-07-02T11:44:07;20.80;99.90
61400;DHT22;47269;48.182;-1.946;2023-07-02T11:46:33;20.90;99.90
61400;DHT22;47269;48.182;-1.946;2023-07-02T11:49:02;20.90;99.90
61400;DHT22;47269;48.182;-1.946;2023-07-02T11:51:30;20.30;99.90
61400;DHT22;47269;48.182;-1.946;2023-07-02T11:53:56;20.40;99.90
61400;DHT22;47269;48.182;-1.946;2023-07-02T11:56:22;20.50;99.90
61400;DHT22;47269;48.182;-1.946;2023-07-02T11:58:48;20.00;99.90
61400;DHT22;47269;48.182;-1.946;2023-07-02T12:01:13;19.90;99.90
61400;DHT22;47269;48.182;-1.946;2023-07-02T12:03:39;19.90;99.90
61400;DHT22;47269;48.182;-1.946;2023-07-02T12:06:05;19.80;99.90
61400;DHT22;47269;48.182;-1.946;2023-07-02T12:08:30;19.80;99.90
61400;DHT22;47269;48.182;-1.946;2023-07-02T12:10:56;19.80;99.90
61400;DHT22;47269;48.182;-1.946;2023-07-02T12:13:22;20.00;99.90
61400;DHT22;47269;48.182;-1.946;2023-07-02T12:15:48;20.60;99.90
61400;DHT22;47269;48.182;-1.946;2023-07-02T12:18:15;21.00;99.90
61400;DHT22;47269;48.182;-1.946;2023-07-02T12:20:41;21.20;99.90
61400;DHT22;47269;48.182;-1.946;2023-07-02T12:23:06;21.40;99.90
61400;DHT22;47269;48.182;-1.946;2023-07-02T12:25:32;21.60;99.90
61400;DHT22;47269;48.182;-1.946;2023-07-02T12:27:58;22.20;99.90
61400;DHT22;47269;48.182;-1.946;2023-07-02T12:30:24;22.00;99.90
61400;DHT22;47269;48.182;-1.946;2023-07-02T12:32:49;21.60;99.90
61400;DHT22;47269;48.182;-1.946;2023-07-02T12:35:15;21.80;99.90
61400;DHT22;47269;48.182;-1.946;2023-07-02T12:37:50;21.20;99.90
61400;DHT22;47269;48.182;-1.946;2023-07-02T12:40:16;21.40;99.90
61400;DHT22;47269;48.182;-1.946;2023-07-02T12:42:43;21.30;99.90
61400;DHT22;47269;48.182;-1.946;2023-07-02T12:45:10;21.70;99.90
61400;DHT22;47269;48.182;-1.946;2023-07-02T12:47:40;22.20;99.90
61400;DHT22;47269;48.182;-1.946;2023-07-02T12:50:06;22.10;99.90
61400;DHT22;47269;48.182;-1.946;2023-07-02T12:52:32;21.90;99.90
61400;DHT22;47269;48.182;-1.946;2023-07-02T12:54:59;21.90;99.90
61400;DHT22;47269;48.182;-1.946;2023-07-02T12:57:24;21.40;99.90
61400;DHT22;47269;48.182;-1.946;2023-07-02T12:59:52;21.50;99.90
61400;DHT22;47269;48.182;-1.946;2023-07-02T13:02:18;21.50;99.90
61400;DHT22;47269;48.182;-1.946;2023-07-02T13:04:44;21.00;99.90
61400;DHT22;47269;48.182;-1.946;2023-07-02T13:07:09;20.80;99.90
61400;DHT22;47269;48.182;-1.946;2023-07-02T13:09:35;20.40;99.90
61400;DHT22;47269;48.182;-1.946;2023-07-02T13:12:01;20.30;99.90
61400;DHT22;47269;48.182;-1.946;2023-07-02T13:14:26;20.20;99.90
61400;DHT22;47269;48.182;-1.946;2023-07-02T13:16:52;20.30;99.90
61400;DHT22;47269;48.182;-1.946;2023-07-02T13:19:18;20.30;99.90
61400;DHT22;47269;48.182;-1.946;2023-07-02T13:21:43;20.30;99.90
61400;DHT22;47269;48.182;-1.946;2023-07-02T13:24:10;20.50;99.90
61400;DHT22;47269;48.182;-1.946;2023-07-02T13:26:37;20.90;99.90
61400;DHT22;47269;48.182;-1.946;2023-07-02T13:29:03;21.20;99.90
61400;DHT22;47269;48.182;-1.946;2023-07-02T13:31:29;21.30;99.90
61400;DHT22;47269;48.182;-1.946;2023-07-02T13:33:55;21.20;99.90
61400;DHT22;47269;48.182;-1.946;2023-07-02T13:36:20;21.00;99.90
61400;DHT22;47269;48.182;-1.946;2023-07-02T13:38:46;21.00;99.90
61400;DHT22;47269;48.182;-1.946;2023-07-02T13:41:24;21.00;99.90
61400;DHT22;47269;48.182;-1.946;2023-07-02T13:43:49;20.90;99.90
61400;DHT22;47269;48.182;-1.946;2023-07-02T13:46:15;21.30;99.90
61400;DHT22;47269;48.182;-1.946;2023-07-02T13:48:42;21.70;99.90
61400;DHT22;47269;48.182;-1.946;2023-07-02T13:51:07;21.30;99.90
61400;DHT22;47269;48.182;-1.946;2023-07-02T13:53:34;21.30;99.90
61400;DHT22;47269;48.182;-1.946;2023-07-02T13:56:00;21.30;99.90
61400;DHT22;47269;48.182;-1.946;2023-07-02T13:58:25;21.20;99.90
61400;DHT22;47269;48.182;-1.946;2023-07-02T14:00:51;21.20;99.90
61400;DHT22;47269;48.182;-1.946;2023-07-02T14:03:17;21.10;99.90
61400;DHT22;47269;48.182;-1.946;2023-07-02T14:05:42;20.90;99.90
61400;DHT22;47269;48.182;-1.946;2023-07-02T14:08:09;20.70;99.90
61400;DHT22;47269;48.182;-1.946;2023-07-02T14:10:35;20.70;99.90
61400;DHT22;47269;48.182;-1.946;2023-07-02T14:13:01;20.50;99.90
61400;DHT22;47269;48.182;-1.946;2023-07-02T14:15:26;20.50;99.90
61400;DHT22;47269;48.182;-1.946;2023-07-02T14:17:53;20.40;99.90
61400;DHT22;47269;48.182;-1.946;2023-07-02T14:20:19;20.40;99.90
61400;DHT22;47269;48.182;-1.946;2023-07-02T14:22:44;20.30;99.90
61400;DHT22;47269;48.182;-1.946;2023-07-02T14:25:10;20.30;99.90
61400;DHT22;47269;48.182;-1.946;2023-07-02T14:27:36;20.20;99.90
61400;DHT22;47269;48.182;-1.946;2023-07-02T14:30:01;19.80;99.90
61400;DHT22;47269;48.182;-1.946;2023-07-02T14:32:31;19.80;99.90
61400;DHT22;47269;48.182;-1.946;2023-07-02T14:34:57;20.10;99.90
61400;DHT22;47269;48.182;-1.946;2023-07-02T14:37:22;20.10;99.90
61400;DHT22;47269;48.182;-1.946;2023-07-02T14:39:48;20.10;99.90
61400;DHT22;47269;48.182;-1.946;2023-07-02T14:42:13;20.20;99.90
61400;DHT22;47269;48.182;-1.946;2023-07-02T14:44:39;20.50;99.90
61400;DHT22;47269;48.182;-1.946;2023-07-02T14:47:05;20.70;99.90
61400;DHT22;47269;48.182;-1.946;2023-07-02T14:49:31;20.50;99.90
61400;DHT22;47269;48.182;-1.946;2023-07-02T14:51:57;20.40;99.90
61400;DHT22;47269;48.182;-1.946;2023-07-02T14:54:22;20.40;99.90
61400;DHT22;47269;48.182;-1.946;2023-07-02T14:56:48;20.70;99.90
61400;DHT22;47269;48.182;-1.946;2023-07-02T14:59:14;21.00;99.90
61400;DHT22;47269;48.182;-1.946;2023-07-02T15:01:39;21.10;99.90
61400;DHT22;47269;48.182;-1.946;2023-07-02T15:04:05;21.20;99.90
61400;DHT22;47269;48.182;-1.946;2023-07-02T15:06:32;21.60;99.90
61400;DHT22;47269;48.182;-1.946;2023-07-02T15:08:58;21.70;99.90
61400;DHT22;47269;48.182;-1.946;2023-07-02T15:11:23;21.90;99.90
61400;DHT22;47269;48.182;-1.946;2023-07-02T15:13:49;21.50;99.90
61400;DHT22;47269;48.182;-1.946;2023-07-02T15:16:15;21.30;99.90
61400;DHT22;47269;48.182;-1.946;2023-07-02T15:18:40;21.20;99.90
61400;DHT22;47269;48.182;-1.946;2023-07-02T15:21:06;20.70;99.90
61400;DHT22;47269;48.182;-1.946;2023-07-02T15:23:32;20.90;99.90
61400;DHT22;47269;48.182;-1.946;2023-07-02T15:26:04;21.00;99.90
61400;DHT22;47269;48.182;-1.946;2023-07-02T15:28:30;20.80;99.90
61400;DHT22;47269;48.182;-1.946;2023-07-02T15:30:58;20.90;99.90
61400;DHT22;47269;48.182;-1.946;2023-07-02T15:33:26;21.00;99.90
61400;DHT22;47269;48.182;-1.946;2023-07-02T15:35:52;21.10;99.90
61400;DHT22;47269;48.182;-1.946;2023-07-02T15:38:18;21.20;99.90
61400;DHT22;47269;48.182;-1.946;2023-07-02T15:40:46;21.40;99.90
61400;DHT22;47269;48.182;-1.946;2023-07-02T15:43:12;21.70;99.90
61400;DHT22;47269;48.182;-1.946;2023-07-02T15:45:38;21.60;99.90
61400;DHT22;47269;48.182;-1.946;2023-07-02T15:48:04;21.80;99.90
61400;DHT22;47269;48.182;-1.946;2023-07-02T15:50:30;21.80;99.90
61400;DHT22;47269;48.182;-1.946;2023-07-02T15:52:56;21.70;99.90
61400;DHT22;47269;48.182;-1.946;2023-07-02T15:55:22;21.80;99.90
61400;DHT22;47269;48.182;-1.946;2023-07-02T15:57:49;21.50;99.90
61400;DHT22;47269;48.182;-1.946;2023-07-02T16:00:15;21.50;99.90
61400;DHT22;47269;48.182;-1.946;2023-07-02T16:02:42;21.30;99.90
61400;DHT22;47269;48.182;-1.946;2023-07-02T16:05:08;21.20;99.90
61400;DHT22;47269;48.182;-1.946;2023-07-02T16:07:34;21.10;99.90
61400;DHT22;47269;48.182;-1.946;2023-07-02T16:10:00;21.00;99.90
61400;DHT22;47269;48.182;-1.946;2023-07-02T16:12:26;21.10;99.90
61400;DHT22;47269;48.182;-1.946;2023-07-02T16:14:52;21.10;99.90
61400;DHT22;47269;48.182;-1.946;2023-07-02T16:17:18;21.00;99.90
61400;DHT22;47269;48.182;-1.946;2023-07-02T16:19:43;20.90;99.90
61400;DHT22;47269;48.182;-1.946;2023-07-02T16:22:09;21.00;99.90
61400;DHT22;47269;48.182;-1.946;2023-07-02T16:24:35;21.10;99.90
61400;DHT22;47269;48.182;-1.946;2023-07-02T16:27:02;21.10;99.90
61400;DHT22;47269;48.182;-1.946;2023-07-02T16:29:29;21.20;99.90
61400;DHT22;47269;48.182;-1.946;2023-07-02T16:31:58;21.20;99.90
61400;DHT22;47269;48.182;-1.946;2023-07-02T16:34:25;21.10;99.90
61400;DHT22;47269;48.182;-1.946;2023-07-02T16:36:51;21.10;99.90
61400;DHT22;47269;48.182;-1.946;2023-07-02T16:39:18;21.00;99.90
61400;DHT22;47269;48.182;-1.946;2023-07-02T16:41:44;20.70;99.90
61400;DHT22;47269;48.182;-1.946;2023-07-02T16:46:40;20.70;99.90
61400;DHT22;47269;48.182;-1.946;2023-07-02T16:49:07;20.70;99.90
61400;DHT22;47269;48.182;-1.946;2023-07-02T16:51:32;20.80;99.90
61400;DHT22;47269;48.182;-1.946;2023-07-02T16:53:59;20.80;99.90
61400;DHT22;47269;48.182;-1.946;2023-07-02T16:56:27;21.00;99.90
61400;DHT22;47269;48.182;-1.946;2023-07-02T16:58:53;21.20;99.90
61400;DHT22;47269;48.182;-1.946;2023-07-02T17:01:18;21.20;99.90
61400;DHT22;47269;48.182;-1.946;2023-07-02T17:03:44;21.40;99.90
61400;DHT22;47269;48.182;-1.946;2023-07-02T17:06:11;21.40;99.90
61400;DHT22;47269;48.182;-1.946;2023-07-02T17:08:40;21.30;99.90
61400;DHT22;47269;48.182;-1.946;2023-07-02T17:11:07;21.00;99.90
61400;DHT22;47269;48.182;-1.946;2023-07-02T17:13:33;20.90;99.90
61400;DHT22;47269;48.182;-1.946;2023-07-02T17:15:59;21.00;99.90
61400;DHT22;47269;48.182;-1.946;2023-07-02T17:18:25;21.00;99.90
61400;DHT22;47269;48.182;-1.946;2023-07-02T17:20:51;20.80;99.90
61400;DHT22;47269;48.182;-1.946;2023-07-02T17:23:17;20.70;99.90
61400;DHT22;47269;48.182;-1.946;2023-07-02T17:25:43;20.60;99.90
61400;DHT22;47269;48.182;-1.946;2023-07-02T17:28:09;20.50;99.90
61400;DHT22;47269;48.182;-1.946;2023-07-02T17:30:35;20.50;99.90
61400;DHT22;47269;48.182;-1.946;2023-07-02T17:33:02;20.50;99.90
61400;DHT22;47269;48.182;-1.946;2023-07-02T17:35:28;20.50;99.90
61400;DHT22;47269;48.182;-1.946;2023-07-02T17:37:53;20.50;99.90
61400;DHT22;47269;48.182;-1.946;2023-07-02T17:40:19;20.50;99.90
61400;DHT22;47269;48.182;-1.946;2023-07-02T17:42:45;20.40;99.90
61400;DHT22;47269;48.182;-1.946;2023-07-02T17:45:11;20.60;99.90
61400;DHT22;47269;48.182;-1.946;2023-07-02T17:47:37;20.70;99.90
61400;DHT22;47269;48.182;-1.946;2023-07-02T17:50:04;20.50;99.90
61400;DHT22;47269;48.182;-1.946;2023-07-02T17:52:29;20.40;99.90
61400;DHT22;47269;48.182;-1.946;2023-07-02T17:54:57;20.30;99.90
61400;DHT22;47269;48.182;-1.946;2023-07-02T17:57:24;20.30;99.90
61400;DHT22;47269;48.182;-1.946;2023-07-02T17:59:51;20.30;99.90
61400;DHT22;47269;48.182;-1.946;2023-07-02T18:02:21;20.20;99.90
61400;DHT22;47269;48.182;-1.946;2023-07-02T18:04:46;20.20;99.90
61400;DHT22;47269;48.182;-1.946;2023-07-02T18:07:15;20.20;99.90
61400;DHT22;47269;48.182;-1.946;2023-07-02T18:09:44;20.30;99.90
61400;DHT22;47269;48.182;-1.946;2023-07-02T18:12:14;20.30;99.90
61400;DHT22;47269;48.182;-1.946;2023-07-02T18:14:44;20.20;99.90
61400;DHT22;47269;48.182;-1.946;2023-07-02T18:17:11;20.20;99.90
61400;DHT22;47269;48.182;-1.946;2023-07-02T18:19:37;20.00;99.90
61400;DHT22;47269;48.182;-1.946;2023-07-02T18:22:03;20.00;99.90
61400;DHT22;47269;48.182;-1.946;2023-07-02T18:24:38;19.90;99.90
61400;DHT22;47269;48.182;-1.946;2023-07-02T18:27:06;19.80;99.90
61400;DHT22;47269;48.182;-1.946;2023-07-02T18:29:34;19.70;99.90
61400;DHT22;47269;48.182;-1.946;2023-07-02T18:32:00;19.60;99.90
61400;DHT22;47269;48.182;-1.946;2023-07-02T18:34:29;19.40;99.90
61400;DHT22;47269;48.182;-1.946;2023-07-02T18:36:55;19.40;99.90
61400;DHT22;47269;48.182;-1.946;2023-07-02T18:39:29;19.40;99.90
61400;DHT22;47269;48.182;-1.946;2023-07-02T18:42:02;19.20;99.90
61400;DHT22;47269;48.182;-1.946;2023-07-02T18:44:29;19.30;99.90
61400;DHT22;47269;48.182;-1.946;2023-07-02T18:47:06;19.40;99.90
61400;DHT22;47269;48.182;-1.946;2023-07-02T18:49:33;19.40;99.90
61400;DHT22;47269;48.182;-1.946;2023-07-02T18:52:07;19.50;99.90
61400;DHT22;47269;48.182;-1.946;2023-07-02T18:54:34;19.60;99.90
61400;DHT22;47269;48.182;-1.946;2023-07-02T18:57:04;19.60;99.90
61400;DHT22;47269;48.182;-1.946;2023-07-02T18:59:30;19.30;99.90
61400;DHT22;47269;48.182;-1.946;2023-07-02T19:02:03;19.20;99.90
61400;DHT22;47269;48.182;-1.946;2023-07-02T19:04:31;19.10;99.90
61400;DHT22;47269;48.182;-1.946;2023-07-02T19:06:58;19.10;99.90
61400;DHT22;47269;48.182;-1.946;2023-07-02T19:09:24;19.10;99.90
61400;DHT22;47269;48.182;-1.946;2023-07-02T19:11:49;19.00;99.90
61400;DHT22;47269;48.182;-1.946;2023-07-02T19:14:15;18.90;99.90
61400;DHT22;47269;48.182;-1.946;2023-07-02T19:16:41;18.90;99.90
61400;DHT22;47269;48.182;-1.946;2023-07-02T19:19:06;19.00;99.90
61400;DHT22;47269;48.182;-1.946;2023-07-02T19:21:32;18.90;99.90
61400;DHT22;47269;48.182;-1.946;2023-07-02T19:24:00;18.90;99.90
61400;DHT22;47269;48.182;-1.946;2023-07-02T19:26:26;18.90;99.90
61400;DHT22;47269;48.182;-1.946;2023-07-02T19:28:54;19.00;99.90
61400;DHT22;47269;48.182;-1.946;2023-07-02T19:31:20;18.90;99.90
61400;DHT22;47269;48.182;-1.946;2023-07-02T19:33:45;18.80;99.90
61400;DHT22;47269;48.182;-1.946;2023-07-02T19:36:12;18.70;99.90
61400;DHT22;47269;48.182;-1.946;2023-07-02T19:38:38;18.60;99.90
61400;DHT22;47269;48.182;-1.946;2023-07-02T19:41:04;18.20;99.90
61400;DHT22;47269;48.182;-1.946;2023-07-02T19:43:30;18.10;99.90
61400;DHT22;47269;48.182;-1.946;2023-07-02T19:45:59;18.00;99.90
61400;DHT22;47269;48.182;-1.946;2023-07-02T19:48:27;18.00;99.90
61400;DHT22;47269;48.182;-1.946;2023-07-02T19:51:01;18.00;99.90
61400;DHT22;47269;48.182;-1.946;2023-07-02T19:53:27;17.90;99.90
61400;DHT22;47269;48.182;-1.946;2023-07-02T19:55:53;18.00;99.90
61400;DHT22;47269;48.182;-1.946;2023-07-02T19:58:18;18.00;99.90
61400;DHT22;47269;48.182;-1.946;2023-07-02T20:00:44;18.10;99.90
61400;DHT22;47269;48.182;-1.946;2023-07-02T20:03:10;18.00;99.90
61400;DHT22;47269;48.182;-1.946;2023-07-02T20:05:37;18.20;99.90
61400;DHT22;47269;48.182;-1.946;2023-07-02T20:08:03;18.20;99.90
61400;DHT22;47269;48.182;-1.946;2023-07-02T20:10:29;18.30;99.90
61400;DHT22;47269;48.182;-1.946;2023-07-02T20:12:54;18.50;99.90
61400;DHT22;47269;48.182;-1.946;2023-07-02T20:15:20;18.50;99.90
61400;DHT22;47269;48.182;-1.946;2023-07-02T20:17:46;18.50;99.90
61400;DHT22;47269;48.182;-1.946;2023-07-02T20:20:12;18.40;99.90
61400;DHT22;47269;48.182;-1.946;2023-07-02T20:22:38;18.30;99.90
61400;DHT22;47269;48.182;-1.946;2023-07-02T20:25:06;18.50;99.90
61400;DHT22;47269;48.182;-1.946;2023-07-02T20:27:32;18.40;99.90
61400;DHT22;47269;48.182;-1.946;2023-07-02T20:29:58;18.40;99.90
61400;DHT22;47269;48.182;-1.946;2023-07-02T20:32:24;18.30;99.90
61400;DHT22;47269;48.182;-1.946;2023-07-02T20:34:50;18.30;99.90
61400;DHT22;47269;48.182;-1.946;2023-07-02T20:37:17;18.40;99.90
61400;DHT22;47269;48.182;-1.946;2023-07-02T20:39:44;18.30;99.90
61400;DHT22;47269;48.182;-1.946;2023-07-02T20:42:11;18.30;99.90
61400;DHT22;47269;48.182;-1.946;2023-07-02T20:44:37;18.20;99.90
61400;DHT22;47269;48.182;-1.946;2023-07-02T20:47:05;18.20;99.90
61400;DHT22;47269;48.182;-1.946;2023-07-02T20:49:32;18.20;99.90
61400;DHT22;47269;48.182;-1.946;2023-07-02T20:51:57;18.20;99.90
61400;DHT22;47269;48.182;-1.946;2023-07-02T20:54:23;18.20;99.90
61400;DHT22;47269;48.182;-1.946;2023-07-02T20:56:49;18.20;99.90
61400;DHT22;47269;48.182;-1.946;2023-07-02T20:59:14;18.20;99.90
61400;DHT22;47269;48.182;-1.946;2023-07-02T21:01:40;18.30;99.90
61400;DHT22;47269;48.182;-1.946;2023-07-02T21:04:06;18.30;99.90
61400;DHT22;47269;48.182;-1.946;2023-07-02T21:06:36;18.30;99.90
61400;DHT22;47269;48.182;-1.946;2023-07-02T21:09:04;18.30;99.90
61400;DHT22;47269;48.182;-1.946;2023-07-02T21:11:31;18.20;99.90
61400;DHT22;47269;48.182;-1.946;2023-07-02T21:13:57;18.20;99.90
61400;DHT22;47269;48.182;-1.946;2023-07-02T21:16:23;18.20;99.90
61400;DHT22;47269;48.182;-1.946;2023-07-02T21:18:49;18.20;99.90
61400;DHT22;47269;48.182;-1.946;2023-07-02T21:21:14;18.20;99.90
61400;DHT22;47269;48.182;-1.946;2023-07-02T21:23:40;18.10;99.90